sensor_id;sensor_type;location;lat;lon;timestamp;P1;durP1;ratioP1;P2;durP2;ratioP2
4529;SDS011;2277;51.626;7.516;2023-08-30T00:02:14;7.20;;;4.70;;
4529;SDS011;2277;51.626;7.516;2023-08-30T00:07:07;5.83;;;5.03;;
4529;SDS011;2277;51.626;7.516;2023-08-30T00:09:32;6.53;;;5.50;;
4529;SDS011;2277;51.626;7.516;2023-08-30T00:11:58;6.47;;;5.23;;
4529;SDS011;2277;51.626;7.516;2023-08-30T00:14:23;6.83;;;5.40;;
4529;SDS011;2277;51.626;7.516;2023-08-30T00:16:49;6.90;;;5.23;;
4529;SDS011;2277;51.626;7.516;2023-08-30T00:19:14;7.73;;;5.77;;
4529;SDS011;2277;51.626;7.516;2023-08-30T00:21:40;5.60;;;4.90;;
4529;SDS011;2277;51.626;7.516;2023-08-30T00:24:07;8.87;;;6.27;;
4529;SDS011;2277;51.626;7.516;2023-08-30T00:26:33;8.27;;;6.27;;
4529;SDS011;2277;51.626;7.516;2023-08-30T00:28:59;8.07;;;6.33;;
4529;SDS011;2277;51.626;7.516;2023-08-30T00:31:24;6.10;;;5.50;;
4529;SDS011;2277;51.626;7.516;2023-08-30T00:33:50;7.90;;;5.70;;
4529;SDS011;2277;51.626;7.516;2023-08-30T00:36:15;8.37;;;7.27;;
4529;SDS011;2277;51.626;7.516;2023-08-30T00:38:43;6.50;;;5.40;;
4529;SDS011;2277;51.626;7.516;2023-08-30T00:41:09;6.33;;;5.73;;
4529;SDS011;2277;51.626;7.516;2023-08-30T00:43:34;8.73;;;6.47;;
4529;SDS011;2277;51.626;7.516;2023-08-30T00:46:00;8.33;;;5.60;;
4529;SDS011;2277;51.626;7.516;2023-08-30T00:48:26;6.70;;;6.00;;
4529;SDS011;2277;51.626;7.516;2023-08-30T00:50:51;7.63;;;5.87;;
4529;SDS011;2277;51.626;7.516;2023-08-30T00:53:17;8.40;;;6.50;;
4529;SDS011;2277;51.626;7.516;2023-08-30T00:55:43;9.00;;;6.10;;
4529;SDS011;2277;51.626;7.516;2023-08-30T00:58:09;7.97;;;7.17;;
4529;SDS011;2277;51.626;7.516;2023-08-30T01:00:36;7.10;;;6.40;;
4529;SDS011;2277;51.626;7.516;2023-08-30T01:03:02;8.10;;;6.37;;
4529;SDS011;2277;51.626;7.516;2023-08-30T01:05:30;6.03;;;4.80;;
4529;SDS011;2277;51.626;7.516;2023-08-30T01:07:56;6.13;;;5.53;;
4529;SDS011;2277;51.626;7.516;2023-08-30T01:10:22;8.20;;;5.97;;
4529;SDS011;2277;51.626;7.516;2023-08-30T01:13:03;9.67;;;7.10;;
4529;SDS011;2277;51.626;7.516;2023-08-30T01:15:34;7.20;;;5.40;;
4529;SDS011;2277;51.626;7.516;2023-08-30T01:18:00;7.67;;;5.50;;
4529;SDS011;2277;51.626;7.516;2023-08-30T01:20:29;7.87;;;7.03;;
4529;SDS011;2277;51.626;7.516;2023-08-30T01:23:05;5.63;;;5.03;;
4529;SDS011;2277;51.626;7.516;2023-08-30T01:28:35;7.73;;;6.10;;
4529;SDS011;2277;51.626;7.516;2023-08-30T01:31:01;9.10;;;6.80;;
4529;SDS011;2277;51.626;7.516;2023-08-30T01:33:28;7.33;;;6.27;;
4529;SDS011;2277;51.626;7.516;2023-08-30T01:35:56;9.17;;;5.90;;
4529;SDS011;2277;51.626;7.516;2023-08-30T01:38:23;8.03;;;5.67;;
4529;SDS011;2277;51.626;7.516;2023-08-30T01:40:50;7.67;;;6.00;;
4529;SDS011;2277;51.626;7.516;2023-08-30T01:43:16;8.63;;;5.83;;
4529;SDS011;2277;51.626;7.516;2023-08-30T01:45:43;6.33;;;5.73;;
4529;SDS011;2277;51.626;7.516;2023-08-30T01:48:10;9.20;;;7.70;;
4529;SDS011;2277;51.626;7.516;2023-08-30T01:50:38;6.43;;;5.73;;
4529;SDS011;2277;51.626;7.516;2023-08-30T01:53:06;6.87;;;5.80;;
4529;SDS011;2277;51.626;7.516;2023-08-30T01:55:32;7.40;;;5.90;;
4529;SDS011;2277;51.626;7.516;2023-08-30T01:58:00;7.70;;;6.03;;
4529;SDS011;2277;51.626;7.516;2023-08-30T02:00:25;6.63;;;5.00;;
4529;SDS011;2277;51.626;7.516;2023-08-30T02:02:51;7.73;;;5.80;;
4529;SDS011;2277;51.626;7.516;2023-08-30T02:05:17;9.17;;;5.87;;
4529;SDS011;2277;51.626;7.516;2023-08-30T02:10:15;7.63;;;6.67;;
4529;SDS011;2277;51.626;7.516;2023-08-30T02:12:48;7.60;;;5.83;;
4529;SDS011;2277;51.626;7.516;2023-08-30T02:15:16;6.60;;;5.90;;
4529;SDS011;2277;51.626;7.516;2023-08-30T02:17:42;8.90;;;5.87;;
4529;SDS011;2277;51.626;7.516;2023-08-30T02:20:09;6.57;;;5.30;;
4529;SDS011;2277;51.626;7.516;2023-08-30T02:22:35;9.77;;;6.27;;
4529;SDS011;2277;51.626;7.516;2023-08-30T02:25:01;6.10;;;5.33;;
4529;SDS011;2277;51.626;7.516;2023-08-30T02:27:32;7.80;;;5.47;;
4529;SDS011;2277;51.626;7.516;2023-08-30T02:29:59;7.93;;;5.80;;
4529;SDS011;2277;51.626;7.516;2023-08-30T02:32:25;7.83;;;5.07;;
4529;SDS011;2277;51.626;7.516;2023-08-30T02:34:51;6.23;;;5.47;;
4529;SDS011;2277;51.626;7.516;2023-08-30T02:37:18;8.03;;;7.23;;
4529;SDS011;2277;51.626;7.516;2023-08-30T02:39:43;8.33;;;6.97;;
4529;SDS011;2277;51.626;7.516;2023-08-30T02:42:09;12.50;;;6.20;;
4529;SDS011;2277;51.626;7.516;2023-08-30T02:44:35;12.70;;;8.53;;
4529;SDS011;2277;51.626;7.516;2023-08-30T02:47:00;10.70;;;6.67;;
4529;SDS011;2277;51.626;7.516;2023-08-30T02:49:26;10.00;;;7.57;;
4529;SDS011;2277;51.626;7.516;2023-08-30T02:51:52;8.23;;;7.13;;
4529;SDS011;2277;51.626;7.516;2023-08-30T02:54:17;9.60;;;7.17;;
4529;SDS011;2277;51.626;7.516;2023-08-30T02:56:43;8.23;;;6.83;;
4529;SDS011;2277;51.626;7.516;2023-08-30T02:59:09;8.73;;;6.63;;
4529;SDS011;2277;51.626;7.516;2023-08-30T03:01:35;8.10;;;6.40;;
4529;SDS011;2277;51.626;7.516;2023-08-30T03:04:01;10.53;;;7.30;;
4529;SDS011;2277;51.626;7.516;2023-08-30T03:06:27;8.30;;;6.97;;
4529;SDS011;2277;51.626;7.516;2023-08-30T03:08:55;10.10;;;7.03;;
4529;SDS011;2277;51.626;7.516;2023-08-30T03:11:21;8.90;;;6.20;;
4529;SDS011;2277;51.626;7.516;2023-08-30T03:13:46;10.03;;;6.77;;
4529;SDS011;2277;51.626;7.516;2023-08-30T03:16:12;8.63;;;5.80;;
4529;SDS011;2277;51.626;7.516;2023-08-30T03:18:39;8.80;;;7.90;;
4529;SDS011;2277;51.626;7.516;2023-08-30T03:21:05;9.07;;;7.30;;
4529;SDS011;2277;51.626;7.516;2023-08-30T03:23:31;8.20;;;7.40;;
4529;SDS011;2277;51.626;7.516;2023-08-30T03:25:58;9.33;;;6.87;;
4529;SDS011;2277;51.626;7.516;2023-08-30T03:28:25;5.93;;;5.33;;
4529;SDS011;2277;51.626;7.516;2023-08-30T03:30:50;9.47;;;7.30;;
4529;SDS011;2277;51.626;7.516;2023-08-30T03:33:16;8.40;;;6.03;;
4529;SDS011;2277;51.626;7.516;2023-08-30T03:35:41;10.37;;;7.07;;
4529;SDS011;2277;51.626;7.516;2023-08-30T03:38:07;10.17;;;7.97;;
4529;SDS011;2277;51.626;7.516;2023-08-30T03:40:32;11.53;;;8.30;;
4529;SDS011;2277;51.626;7.516;2023-08-30T03:42:58;10.03;;;8.90;;
4529;SDS011;2277;51.626;7.516;2023-08-30T03:45:24;12.00;;;10.73;;
4529;SDS011;2277;51.626;7.516;2023-08-30T03:47:49;9.50;;;7.00;;
4529;SDS011;2277;51.626;7.516;2023-08-30T03:50:15;11.53;;;8.50;;
4529;SDS011;2277;51.626;7.516;2023-08-30T03:52:40;8.83;;;7.00;;
4529;SDS011;2277;51.626;7.516;2023-08-30T03:55:06;12.07;;;9.40;;
4529;SDS011;2277;51.626;7.516;2023-08-30T03:57:32;9.57;;;7.33;;
4529;SDS011;2277;51.626;7.516;2023-08-30T03:59:57;10.17;;;8.30;;
4529;SDS011;2277;51.626;7.516;2023-08-30T04:02:23;15.83;;;7.33;;
4529;SDS011;2277;51.626;7.516;2023-08-30T04:04:49;12.93;;;7.90;;
4529;SDS011;2277;51.626;7.516;2023-08-30T04:07:14;9.20;;;8.30;;
4529;SDS011;2277;51.626;7.516;2023-08-30T04:09:40;6.90;;;6.17;;
4529;SDS011;2277;51.626;7.516;2023-08-30T04:12:06;12.43;;;7.47;;
4529;SDS011;2277;51.626;7.516;2023-08-30T04:14:32;10.30;;;8.10;;
4529;SDS011;2277;51.626;7.516;2023-08-30T04:16:57;11.00;;;7.17;;
4529;SDS011;2277;51.626;7.516;2023-08-30T04:19:23;9.53;;;6.90;;
4529;SDS011;2277;51.626;7.516;2023-08-30T04:21:48;7.03;;;6.30;;
4529;SDS011;2277;51.626;7.516;2023-08-30T04:24:14;10.07;;;7.70;;
4529;SDS011;2277;51.626;7.516;2023-08-30T04:26:40;13.63;;;8.33;;
4529;SDS011;2277;51.626;7.516;2023-08-30T04:29:06;9.33;;;6.80;;
4529;SDS011;2277;51.626;7.516;2023-08-30T04:31:31;9.43;;;6.60;;
4529;SDS011;2277;51.626;7.516;2023-08-30T04:33:57;8.00;;;7.07;;
4529;SDS011;2277;51.626;7.516;2023-08-30T04:36:23;8.50;;;6.70;;
4529;SDS011;2277;51.626;7.516;2023-08-30T04:38:48;12.73;;;8.00;;
4529;SDS011;2277;51.626;7.516;2023-08-30T04:41:14;15.17;;;10.00;;
4529;SDS011;2277;51.626;7.516;2023-08-30T04:43:39;13.03;;;9.27;;
4529;SDS011;2277;51.626;7.516;2023-08-30T04:46:05;18.13;;;9.50;;
4529;SDS011;2277;51.626;7.516;2023-08-30T04:48:31;10.87;;;9.43;;
4529;SDS011;2277;51.626;7.516;2023-08-30T04:51:00;14.00;;;9.77;;
4529;SDS011;2277;51.626;7.516;2023-08-30T04:53:28;16.37;;;10.77;;
4529;SDS011;2277;51.626;7.516;2023-08-30T04:55:54;16.70;;;10.90;;
4529;SDS011;2277;51.626;7.516;2023-08-30T04:58:19;15.33;;;10.47;;
4529;SDS011;2277;51.626;7.516;2023-08-30T05:00:45;13.13;;;8.90;;
4529;SDS011;2277;51.626;7.516;2023-08-30T05:03:11;14.63;;;10.30;;
4529;SDS011;2277;51.626;7.516;2023-08-30T05:05:36;12.40;;;8.57;;
4529;SDS011;2277;51.626;7.516;2023-08-30T05:08:02;12.63;;;9.53;;
4529;SDS011;2277;51.626;7.516;2023-08-30T05:10:28;12.23;;;7.37;;
4529;SDS011;2277;51.626;7.516;2023-08-30T05:12:54;13.07;;;7.87;;
4529;SDS011;2277;51.626;7.516;2023-08-30T05:15:20;9.10;;;7.63;;
4529;SDS011;2277;51.626;7.516;2023-08-30T05:17:45;10.20;;;9.03;;
4529;SDS011;2277;51.626;7.516;2023-08-30T05:20:12;13.43;;;11.00;;
4529;SDS011;2277;51.626;7.516;2023-08-30T05:22:38;10.87;;;7.73;;
4529;SDS011;2277;51.626;7.516;2023-08-30T05:25:03;10.13;;;7.53;;
4529;SDS011;2277;51.626;7.516;2023-08-30T05:27:29;10.87;;;6.83;;
4529;SDS011;2277;51.626;7.516;2023-08-30T05:29:55;12.00;;;7.67;;
4529;SDS011;2277;51.626;7.516;2023-08-30T05:32:23;17.17;;;7.17;;
4529;SDS011;2277;51.626;7.516;2023-08-30T05:34:49;8.70;;;7.60;;
4529;SDS011;2277;51.626;7.516;2023-08-30T05:37:14;13.80;;;8.20;;
4529;SDS011;2277;51.626;7.516;2023-08-30T05:39:40;9.10;;;6.73;;
4529;SDS011;2277;51.626;7.516;2023-08-30T05:42:05;12.97;;;8.03;;
4529;SDS011;2277;51.626;7.516;2023-08-30T05:44:31;13.20;;;7.03;;
4529;SDS011;2277;51.626;7.516;2023-08-30T05:46:56;9.07;;;7.60;;
4529;SDS011;2277;51.626;7.516;2023-08-30T05:49:22;9.10;;;6.83;;
4529;SDS011;2277;51.626;7.516;2023-08-30T05:51:48;11.80;;;7.87;;
4529;SDS011;2277;51.626;7.516;2023-08-30T05:54:13;14.77;;;8.37;;
4529;SDS011;2277;51.626;7.516;2023-08-30T05:56:39;14.40;;;8.10;;
4529;SDS011;2277;51.626;7.516;2023-08-30T05:59:05;10.90;;;9.00;;
4529;SDS011;2277;51.626;7.516;2023-08-30T06:01:30;9.90;;;7.57;;
4529;SDS011;2277;51.626;7.516;2023-08-30T06:03:56;11.17;;;9.07;;
4529;SDS011;2277;51.626;7.516;2023-08-30T06:06:21;12.50;;;8.53;;
4529;SDS011;2277;51.626;7.516;2023-08-30T06:08:47;13.27;;;7.83;;
4529;SDS011;2277;51.626;7.516;2023-08-30T06:11:13;14.83;;;10.53;;
4529;SDS011;2277;51.626;7.516;2023-08-30T06:13:40;11.03;;;8.67;;
4529;SDS011;2277;51.626;7.516;2023-08-30T06:16:05;14.53;;;9.40;;
4529;SDS011;2277;51.626;7.516;2023-08-30T06:18:31;12.43;;;8.50;;
4529;SDS011;2277;51.626;7.516;2023-08-30T06:20:57;16.00;;;10.73;;
4529;SDS011;2277;51.626;7.516;2023-08-30T06:23:23;12.83;;;10.03;;
4529;SDS011;2277;51.626;7.516;2023-08-30T06:25:57;14.97;;;9.33;;
4529;SDS011;2277;51.626;7.516;2023-08-30T06:28:23;15.00;;;10.77;;
4529;SDS011;2277;51.626;7.516;2023-08-30T06:30:49;14.10;;;11.27;;
4529;SDS011;2277;51.626;7.516;2023-08-30T06:33:15;17.70;;;10.80;;
4529;SDS011;2277;51.626;7.516;2023-08-30T06:35:41;13.20;;;11.00;;
4529;SDS011;2277;51.626;7.516;2023-08-30T06:38:07;15.17;;;11.97;;
4529;SDS011;2277;51.626;7.516;2023-08-30T06:40:33;11.93;;;9.70;;
4529;SDS011;2277;51.626;7.516;2023-08-30T06:42:58;18.10;;;12.20;;
4529;SDS011;2277;51.626;7.516;2023-08-30T06:45:25;18.90;;;13.13;;
4529;SDS011;2277;51.626;7.516;2023-08-30T06:47:50;21.70;;;12.83;;
4529;SDS011;2277;51.626;7.516;2023-08-30T06:50:19;16.57;;;11.07;;
4529;SDS011;2277;51.626;7.516;2023-08-30T06:52:45;21.67;;;15.20;;
4529;SDS011;2277;51.626;7.516;2023-08-30T06:55:10;15.63;;;11.23;;
4529;SDS011;2277;51.626;7.516;2023-08-30T06:57:36;20.90;;;16.37;;
4529;SDS011;2277;51.626;7.516;2023-08-30T07:00:01;15.17;;;12.47;;
4529;SDS011;2277;51.626;7.516;2023-08-30T07:02:33;14.83;;;11.60;;
4529;SDS011;2277;51.626;7.516;2023-08-30T07:05:00;19.37;;;12.80;;
4529;SDS011;2277;51.626;7.516;2023-08-30T07:07:26;17.80;;;12.40;;
4529;SDS011;2277;51.626;7.516;2023-08-30T07:09:51;22.10;;;14.10;;
4529;SDS011;2277;51.626;7.516;2023-08-30T07:12:17;21.97;;;13.40;;
4529;SDS011;2277;51.626;7.516;2023-08-30T07:14:42;20.57;;;12.60;;
4529;SDS011;2277;51.626;7.516;2023-08-30T07:17:08;19.60;;;13.83;;
4529;SDS011;2277;51.626;7.516;2023-08-30T07:19:34;17.70;;;12.10;;
4529;SDS011;2277;51.626;7.516;2023-08-30T07:22:00;19.40;;;13.23;;
4529;SDS011;2277;51.626;7.516;2023-08-30T07:24:26;19.40;;;12.70;;
4529;SDS011;2277;51.626;7.516;2023-08-30T07:26:51;14.47;;;11.60;;
4529;SDS011;2277;51.626;7.516;2023-08-30T07:29:17;20.97;;;13.27;;
4529;SDS011;2277;51.626;7.516;2023-08-30T07:31:42;22.23;;;13.33;;
4529;SDS011;2277;51.626;7.516;2023-08-30T07:34:08;23.50;;;13.70;;
4529;SDS011;2277;51.626;7.516;2023-08-30T07:36:33;15.97;;;12.03;;
4529;SDS011;2277;51.626;7.516;2023-08-30T07:38:59;17.13;;;12.17;;
4529;SDS011;2277;51.626;7.516;2023-08-30T07:41:25;20.40;;;12.50;;
4529;SDS011;2277;51.626;7.516;2023-08-30T07:43:50;20.83;;;15.40;;
4529;SDS011;2277;51.626;7.516;2023-08-30T07:46:16;19.87;;;13.40;;
4529;SDS011;2277;51.626;7.516;2023-08-30T07:48:41;23.73;;;14.93;;
4529;SDS011;2277;51.626;7.516;2023-08-30T07:51:07;20.57;;;14.37;;
4529;SDS011;2277;51.626;7.516;2023-08-30T07:53:32;20.10;;;13.73;;
4529;SDS011;2277;51.626;7.516;2023-08-30T07:55:58;21.63;;;12.40;;
4529;SDS011;2277;51.626;7.516;2023-08-30T07:58:23;16.50;;;13.47;;
4529;SDS011;2277;51.626;7.516;2023-08-30T08:00:52;14.40;;;11.40;;
4529;SDS011;2277;51.626;7.516;2023-08-30T08:03:19;15.43;;;10.97;;
4529;SDS011;2277;51.626;7.516;2023-08-30T08:05:47;15.17;;;10.73;;
4529;SDS011;2277;51.626;7.516;2023-08-30T08:08:12;14.87;;;10.30;;
4529;SDS011;2277;51.626;7.516;2023-08-30T08:10:39;14.00;;;10.53;;
4529;SDS011;2277;51.626;7.516;2023-08-30T08:13:05;14.83;;;9.30;;
4529;SDS011;2277;51.626;7.516;2023-08-30T08:15:30;14.40;;;11.17;;
4529;SDS011;2277;51.626;7.516;2023-08-30T08:17:57;13.97;;;9.43;;
4529;SDS011;2277;51.626;7.516;2023-08-30T08:20:23;18.33;;;11.33;;
4529;SDS011;2277;51.626;7.516;2023-08-30T08:22:48;10.77;;;9.37;;
4529;SDS011;2277;51.626;7.516;2023-08-30T08:25:14;11.20;;;7.90;;
4529;SDS011;2277;51.626;7.516;2023-08-30T08:27:41;13.30;;;9.87;;
4529;SDS011;2277;51.626;7.516;2023-08-30T08:30:07;13.37;;;8.03;;
4529;SDS011;2277;51.626;7.516;2023-08-30T08:32:34;12.27;;;8.23;;
4529;SDS011;2277;51.626;7.516;2023-08-30T08:35:00;13.03;;;7.33;;
4529;SDS011;2277;51.626;7.516;2023-08-30T08:37:25;9.60;;;8.63;;
4529;SDS011;2277;51.626;7.516;2023-08-30T08:39:51;12.60;;;9.60;;
4529;SDS011;2277;51.626;7.516;2023-08-30T08:42:18;13.50;;;7.47;;
4529;SDS011;2277;51.626;7.516;2023-08-30T08:44:47;9.10;;;7.13;;
4529;SDS011;2277;51.626;7.516;2023-08-30T08:47:16;10.10;;;6.40;;
4529;SDS011;2277;51.626;7.516;2023-08-30T08:49:43;9.27;;;6.13;;
4529;SDS011;2277;51.626;7.516;2023-08-30T08:52:10;8.97;;;6.50;;
4529;SDS011;2277;51.626;7.516;2023-08-30T08:54:39;12.30;;;7.77;;
4529;SDS011;2277;51.626;7.516;2023-08-30T08:57:07;9.43;;;6.20;;
4529;SDS011;2277;51.626;7.516;2023-08-30T08:59:32;9.87;;;8.37;;
4529;SDS011;2277;51.626;7.516;2023-08-30T09:02:01;11.33;;;6.53;;
4529;SDS011;2277;51.626;7.516;2023-08-30T09:04:28;5.57;;;4.97;;
4529;SDS011;2277;51.626;7.516;2023-08-30T09:06:56;6.27;;;4.73;;
4529;SDS011;2277;51.626;7.516;2023-08-30T09:09:23;5.30;;;3.63;;
4529;SDS011;2277;51.626;7.516;2023-08-30T09:11:49;4.40;;;3.80;;
4529;SDS011;2277;51.626;7.516;2023-08-30T09:14:14;6.33;;;4.17;;
4529;SDS011;2277;51.626;7.516;2023-08-30T09:16:40;4.37;;;3.47;;
4529;SDS011;2277;51.626;7.516;2023-08-30T09:19:05;4.93;;;3.77;;
4529;SDS011;2277;51.626;7.516;2023-08-30T09:21:32;7.83;;;4.03;;
4529;SDS011;2277;51.626;7.516;2023-08-30T09:24:02;5.33;;;4.83;;
4529;SDS011;2277;51.626;7.516;2023-08-30T09:26:30;7.03;;;5.00;;
4529;SDS011;2277;51.626;7.516;2023-08-30T09:29:04;4.83;;;3.77;;
4529;SDS011;2277;51.626;7.516;2023-08-30T09:31:33;5.40;;;3.93;;
4529;SDS011;2277;51.626;7.516;2023-08-30T09:34:00;5.40;;;3.93;;
4529;SDS011;2277;51.626;7.516;2023-08-30T09:36:26;8.70;;;4.17;;
4529;SDS011;2277;51.626;7.516;2023-08-30T09:38:58;4.70;;;4.03;;
4529;SDS011;2277;51.626;7.516;2023-08-30T09:41:24;7.43;;;2.70;;
4529;SDS011;2277;51.626;7.516;2023-08-30T09:43:50;6.37;;;2.90;;
4529;SDS011;2277;51.626;7.516;2023-08-30T09:46:15;3.33;;;3.03;;
4529;SDS011;2277;51.626;7.516;2023-08-30T09:48:41;14.53;;;4.30;;
4529;SDS011;2277;51.626;7.516;2023-08-30T09:51:07;4.37;;;3.40;;
4529;SDS011;2277;51.626;7.516;2023-08-30T09:53:37;5.30;;;3.90;;
4529;SDS011;2277;51.626;7.516;2023-08-30T09:56:09;6.37;;;5.17;;
4529;SDS011;2277;51.626;7.516;2023-08-30T09:58:38;4.60;;;3.50;;
4529;SDS011;2277;51.626;7.516;2023-08-30T10:01:06;6.03;;;4.07;;
4529;SDS011;2277;51.626;7.516;2023-08-30T10:03:32;6.13;;;3.70;;
4529;SDS011;2277;51.626;7.516;2023-08-30T10:06:00;5.77;;;3.70;;
4529;SDS011;2277;51.626;7.516;2023-08-30T10:08:29;3.37;;;3.00;;
4529;SDS011;2277;51.626;7.516;2023-08-30T10:10:57;6.17;;;3.20;;
4529;SDS011;2277;51.626;7.516;2023-08-30T10:13:24;4.90;;;4.40;;
4529;SDS011;2277;51.626;7.516;2023-08-30T10:15:50;4.20;;;3.13;;
4529;SDS011;2277;51.626;7.516;2023-08-30T10:18:21;5.53;;;3.43;;
4529;SDS011;2277;51.626;7.516;2023-08-30T10:20:48;4.90;;;3.77;;
4529;SDS011;2277;51.626;7.516;2023-08-30T10:23:15;5.93;;;4.00;;
4529;SDS011;2277;51.626;7.516;2023-08-30T10:25:43;5.90;;;2.80;;
4529;SDS011;2277;51.626;7.516;2023-08-30T10:28:10;7.37;;;4.07;;
4529;SDS011;2277;51.626;7.516;2023-08-30T10:30:37;5.97;;;3.57;;
4529;SDS011;2277;51.626;7.516;2023-08-30T10:33:03;6.57;;;3.93;;
4529;SDS011;2277;51.626;7.516;2023-08-30T10:35:46;5.37;;;3.80;;
4529;SDS011;2277;51.626;7.516;2023-08-30T10:38:24;5.17;;;4.67;;
4529;SDS011;2277;51.626;7.516;2023-08-30T10:40:53;6.13;;;4.27;;
4529;SDS011;2277;51.626;7.516;2023-08-30T10:43:29;8.70;;;4.53;;
4529;SDS011;2277;51.626;7.516;2023-08-30T10:46:02;10.43;;;4.97;;
4529;SDS011;2277;51.626;7.516;2023-08-30T10:48:38;6.27;;;4.63;;
4529;SDS011;2277;51.626;7.516;2023-08-30T10:51:06;9.90;;;5.30;;
4529;SDS011;2277;51.626;7.516;2023-08-30T10:53:58;8.77;;;5.40;;
4529;SDS011;2277;51.626;7.516;2023-08-30T10:56:27;7.37;;;5.67;;
4529;SDS011;2277;51.626;7.516;2023-08-30T10:58:54;9.33;;;5.43;;
4529;SDS011;2277;51.626;7.516;2023-08-30T11:01:20;8.43;;;6.83;;
4529;SDS011;2277;51.626;7.516;2023-08-30T11:03:45;9.70;;;6.93;;
4529;SDS011;2277;51.626;7.516;2023-08-30T11:06:14;7.17;;;5.73;;
4529;SDS011;2277;51.626;7.516;2023-08-30T11:08:43;7.80;;;6.70;;
4529;SDS011;2277;51.626;7.516;2023-08-30T11:11:10;7.80;;;4.60;;
4529;SDS011;2277;51.626;7.516;2023-08-30T11:13:37;9.93;;;5.30;;
4529;SDS011;2277;51.626;7.516;2023-08-30T11:16:02;7.03;;;4.97;;
4529;SDS011;2277;51.626;7.516;2023-08-30T11:18:36;6.13;;;4.90;;
4529;SDS011;2277;51.626;7.516;2023-08-30T11:21:03;4.03;;;3.63;;
4529;SDS011;2277;51.626;7.516;2023-08-30T11:23:29;10.53;;;5.60;;
4529;SDS011;2277;51.626;7.516;2023-08-30T11:25:55;5.87;;;4.40;;
4529;SDS011;2277;51.626;7.516;2023-08-30T11:28:26;6.00;;;5.20;;
4529;SDS011;2277;51.626;7.516;2023-08-30T11:30:55;7.13;;;5.93;;
4529;SDS011;2277;51.626;7.516;2023-08-30T11:33:21;6.70;;;6.00;;
4529;SDS011;2277;51.626;7.516;2023-08-30T11:35:50;9.00;;;3.83;;
4529;SDS011;2277;51.626;7.516;2023-08-30T11:38:20;6.33;;;5.73;;
4529;SDS011;2277;51.626;7.516;2023-08-30T11:40:48;7.07;;;6.40;;
4529;SDS011;2277;51.626;7.516;2023-08-30T11:43:15;7.77;;;6.97;;
4529;SDS011;2277;51.626;7.516;2023-08-30T11:45:40;7.73;;;6.07;;
4529;SDS011;2277;51.626;7.516;2023-08-30T11:48:06;8.07;;;6.53;;
4529;SDS011;2277;51.626;7.516;2023-08-30T11:50:32;9.30;;;6.60;;
4529;SDS011;2277;51.626;7.516;2023-08-30T11:52:58;10.53;;;6.43;;
4529;SDS011;2277;51.626;7.516;2023-08-30T11:55:24;7.17;;;5.80;;
4529;SDS011;2277;51.626;7.516;2023-08-30T11:57:51;7.30;;;5.53;;
4529;SDS011;2277;51.626;7.516;2023-08-30T12:00:20;6.70;;;5.37;;
4529;SDS011;2277;51.626;7.516;2023-08-30T12:02:46;7.80;;;7.10;;
4529;SDS011;2277;51.626;7.516;2023-08-30T12:05:12;9.70;;;6.27;;
4529;SDS011;2277;51.626;7.516;2023-08-30T12:07:38;9.83;;;6.37;;
4529;SDS011;2277;51.626;7.516;2023-08-30T12:10:09;9.23;;;6.77;;
4529;SDS011;2277;51.626;7.516;2023-08-30T12:12:35;11.90;;;8.10;;
4529;SDS011;2277;51.626;7.516;2023-08-30T12:15:04;10.27;;;6.13;;
4529;SDS011;2277;51.626;7.516;2023-08-30T12:17:36;8.83;;;6.90;;
4529;SDS011;2277;51.626;7.516;2023-08-30T12:20:02;7.77;;;6.97;;
4529;SDS011;2277;51.626;7.516;2023-08-30T12:22:37;8.43;;;6.80;;
4529;SDS011;2277;51.626;7.516;2023-08-30T12:25:03;6.57;;;5.63;;
4529;SDS011;2277;51.626;7.516;2023-08-30T12:27:29;10.00;;;6.50;;
4529;SDS011;2277;51.626;7.516;2023-08-30T12:29:55;7.67;;;5.40;;
4529;SDS011;2277;51.626;7.516;2023-08-30T12:32:21;8.03;;;5.00;;
4529;SDS011;2277;51.626;7.516;2023-08-30T12:34:46;6.80;;;5.90;;
4529;SDS011;2277;51.626;7.516;2023-08-30T12:37:12;5.07;;;4.53;;
4529;SDS011;2277;51.626;7.516;2023-08-30T12:39:37;5.80;;;4.47;;
4529;SDS011;2277;51.626;7.516;2023-08-30T12:42:03;5.30;;;4.70;;
4529;SDS011;2277;51.626;7.516;2023-08-30T12:44:29;6.87;;;4.43;;
4529;SDS011;2277;51.626;7.516;2023-08-30T12:46:54;4.90;;;4.07;;
4529;SDS011;2277;51.626;7.516;2023-08-30T12:49:20;5.07;;;4.50;;
4529;SDS011;2277;51.626;7.516;2023-08-30T12:51:46;4.80;;;4.10;;
4529;SDS011;2277;51.626;7.516;2023-08-30T12:54:11;4.80;;;4.23;;
4529;SDS011;2277;51.626;7.516;2023-08-30T12:56:37;7.10;;;3.83;;
4529;SDS011;2277;51.626;7.516;2023-08-30T12:59:02;5.27;;;4.33;;
4529;SDS011;2277;51.626;7.516;2023-08-30T13:01:28;6.30;;;4.87;;
4529;SDS011;2277;51.626;7.516;2023-08-30T13:03:54;4.93;;;3.60;;
4529;SDS011;2277;51.626;7.516;2023-08-30T13:06:20;6.50;;;4.27;;
4529;SDS011;2277;51.626;7.516;2023-08-30T13:08:46;5.00;;;3.23;;
4529;SDS011;2277;51.626;7.516;2023-08-30T13:11:11;4.67;;;3.90;;
4529;SDS011;2277;51.626;7.516;2023-08-30T13:13:37;3.43;;;2.50;;
4529;SDS011;2277;51.626;7.516;2023-08-30T13:16:03;4.93;;;3.60;;
4529;SDS011;2277;51.626;7.516;2023-08-30T13:18:28;4.47;;;3.97;;
4529;SDS011;2277;51.626;7.516;2023-08-30T13:20:54;4.03;;;2.53;;
4529;SDS011;2277;51.626;7.516;2023-08-30T13:23:20;4.03;;;2.63;;
4529;SDS011;2277;51.626;7.516;2023-08-30T13:25:47;2.70;;;2.33;;
4529;SDS011;2277;51.626;7.516;2023-08-30T13:28:14;5.20;;;3.00;;
4529;SDS011;2277;51.626;7.516;2023-08-30T13:30:46;2.40;;;2.20;;
4529;SDS011;2277;51.626;7.516;2023-08-30T13:33:12;2.60;;;2.20;;
4529;SDS011;2277;51.626;7.516;2023-08-30T13:35:40;5.83;;;3.20;;
4529;SDS011;2277;51.626;7.516;2023-08-30T13:38:06;6.77;;;3.27;;
4529;SDS011;2277;51.626;7.516;2023-08-30T13:40:32;3.30;;;2.73;;
4529;SDS011;2277;51.626;7.516;2023-08-30T13:42:57;4.23;;;3.20;;
4529;SDS011;2277;51.626;7.516;2023-08-30T13:45:23;4.20;;;2.20;;
4529;SDS011;2277;51.626;7.516;2023-08-30T13:47:49;3.30;;;2.13;;
4529;SDS011;2277;51.626;7.516;2023-08-30T13:50:16;3.37;;;2.70;;
4529;SDS011;2277;51.626;7.516;2023-08-30T13:52:42;3.37;;;1.90;;
4529;SDS011;2277;51.626;7.516;2023-08-30T13:55:08;2.53;;;2.33;;
4529;SDS011;2277;51.626;7.516;2023-08-30T13:57:33;3.93;;;2.47;;
4529;SDS011;2277;51.626;7.516;2023-08-30T13:59:59;4.23;;;2.40;;
4529;SDS011;2277;51.626;7.516;2023-08-30T14:02:28;3.60;;;2.07;;
4529;SDS011;2277;51.626;7.516;2023-08-30T14:04:54;2.77;;;2.57;;
4529;SDS011;2277;51.626;7.516;2023-08-30T14:07:19;3.63;;;2.73;;
4529;SDS011;2277;51.626;7.516;2023-08-30T14:09:45;6.83;;;2.80;;
4529;SDS011;2277;51.626;7.516;2023-08-30T14:12:10;3.03;;;2.53;;
4529;SDS011;2277;51.626;7.516;2023-08-30T14:14:36;3.80;;;2.63;;
4529;SDS011;2277;51.626;7.516;2023-08-30T14:17:01;2.70;;;2.50;;
4529;SDS011;2277;51.626;7.516;2023-08-30T14:19:27;7.93;;;3.67;;
4529;SDS011;2277;51.626;7.516;2023-08-30T14:21:53;2.63;;;2.03;;
4529;SDS011;2277;51.626;7.516;2023-08-30T14:24:20;2.87;;;2.43;;
4529;SDS011;2277;51.626;7.516;2023-08-30T14:26:46;4.57;;;3.67;;
4529;SDS011;2277;51.626;7.516;2023-08-30T14:29:11;3.17;;;2.83;;
4529;SDS011;2277;51.626;7.516;2023-08-30T14:31:37;3.10;;;2.70;;
4529;SDS011;2277;51.626;7.516;2023-08-30T14:34:03;4.77;;;2.90;;
4529;SDS011;2277;51.626;7.516;2023-08-30T14:36:28;4.50;;;2.87;;
4529;SDS011;2277;51.626;7.516;2023-08-30T14:38:54;2.67;;;2.27;;
4529;SDS011;2277;51.626;7.516;2023-08-30T14:41:20;2.80;;;2.53;;
4529;SDS011;2277;51.626;7.516;2023-08-30T14:43:45;3.00;;;2.70;;
4529;SDS011;2277;51.626;7.516;2023-08-30T14:46:11;2.87;;;2.23;;
4529;SDS011;2277;51.626;7.516;2023-08-30T14:48:37;4.57;;;3.53;;
4529;SDS011;2277;51.626;7.516;2023-08-30T14:51:04;2.93;;;2.70;;
4529;SDS011;2277;51.626;7.516;2023-08-30T14:53:30;5.27;;;3.10;;
4529;SDS011;2277;51.626;7.516;2023-08-30T14:55:56;3.33;;;2.80;;
4529;SDS011;2277;51.626;7.516;2023-08-30T14:58:22;2.70;;;1.97;;
4529;SDS011;2277;51.626;7.516;2023-08-30T15:00:48;3.83;;;3.00;;
4529;SDS011;2277;51.626;7.516;2023-08-30T15:03:14;4.17;;;2.73;;
4529;SDS011;2277;51.626;7.516;2023-08-30T15:05:40;2.13;;;1.90;;
4529;SDS011;2277;51.626;7.516;2023-08-30T15:08:06;3.43;;;2.30;;
4529;SDS011;2277;51.626;7.516;2023-08-30T15:10:32;3.50;;;2.40;;
4529;SDS011;2277;51.626;7.516;2023-08-30T15:12:58;4.50;;;3.13;;